sensor_id;sensor_type;location;lat;lon;timestamp;pressure;altitude;pressure_sealevel;temperature;humidity
52719;BME280;38616;42.140;24.760;2022-12-24T00:00:01;99510.81;;;3.53;71.58
52719;BME280;38616;42.140;24.760;2022-12-24T00:02:26;99524.06;;;3.84;70.04
52719;BME280;38616;42.140;24.760;2022-12-24T00:04:52;99518.00;;;3.77;70.07
52719;BME280;38616;42.140;24.760;2022-12-24T00:07:17;99528.41;;;4.14;69.39
52719;BME280;38616;42.140;24.760;2022-12-24T00:09:42;99516.06;;;4.30;67.87
52719;BME280;38616;42.140;24.760;2022-12-24T00:12:08;99522.44;;;3.83;68.22
52719;BME280;38616;42.140;24.760;2022-12-24T00:14:33;99528.41;;;3.73;68.92
52719;BME280;38616;42.140;24.760;2022-12-24T00:16:58;99528.41;;;3.61;69.21
52719;BME280;38616;42.140;24.760;2022-12-24T00:19:24;99532.22;;;3.89;68.69
52719;BME280;38616;42.140;24.760;2022-12-24T00:21:49;99531.97;;;4.03;68.17
52719;BME280;38616;42.140;24.760;2022-12-24T00:24:15;99529.06;;;3.92;68.42
52719;BME280;38616;42.140;24.760;2022-12-24T00:26:40;99529.59;;;3.77;69.63
52719;BME280;38616;42.140;24.760;2022-12-24T00:29:05;99529.50;;;4.01;68.89
52719;BME280;38616;42.140;24.760;2022-12-24T00:31:31;99528.94;;;3.34;70.24
52719;BME280;38616;42.140;24.760;2022-12-24T00:33:56;99522.72;;;3.10;71.54
52719;BME280;38616;42.140;24.760;2022-12-24T00:36:22;99529.03;;;3.04;72.62
52719;BME280;38616;42.140;24.760;2022-12-24T00:38:47;99524.25;;;3.06;72.58
52719;BME280;38616;42.140;24.760;2022-12-24T00:41:13;99534.88;;;3.01;72.53
52719;BME280;38616;42.140;24.760;2022-12-24T00:43:54;99527.28;;;2.98;73.77
52719;BME280;38616;42.140;24.760;2022-12-24T00:46:20;99524.34;;;3.11;72.97
52719;BME280;38616;42.140;24.760;2022-12-24T00:48:47;99522.44;;;3.83;70.72
52719;BME280;38616;42.140;24.760;2022-12-24T00:51:12;99527.75;;;4.07;69.39
52719;BME280;38616;42.140;24.760;2022-12-24T00:53:37;99519.66;;;3.66;70.11
52719;BME280;38616;42.140;24.760;2022-12-24T00:56:03;99526.81;;;3.48;70.69
52719;BME280;38616;42.140;24.760;2022-12-24T00:58:28;99524.84;;;3.44;70.91
52719;BME280;38616;42.140;24.760;2022-12-24T01:00:54;99519.66;;;3.66;70.00
52719;BME280;38616;42.140;24.760;2022-12-24T01:03:19;99522.28;;;3.49;70.57
52719;BME280;38616;42.140;24.760;2022-12-24T01:05:45;99514.00;;;3.38;70.91
52719;BME280;38616;42.140;24.760;2022-12-24T01:08:10;99521.56;;;3.42;70.34
52719;BME280;38616;42.140;24.760;2022-12-24T01:10:35;99513.81;;;3.69;70.28
52719;BME280;38616;42.140;24.760;2022-12-24T01:13:01;99511.72;;;3.59;69.86
52719;BME280;38616;42.140;24.760;2022-12-24T01:15:27;99514.03;;;3.67;69.97
52719;BME280;38616;42.140;24.760;2022-12-24T01:17:53;99500.25;;;3.76;69.39
52719;BME280;38616;42.140;24.760;2022-12-24T01:20:19;99506.94;;;3.61;69.98
52719;BME280;38616;42.140;24.760;2022-12-24T01:22:44;99497.03;;;3.38;70.33
52719;BME280;38616;42.140;24.760;2022-12-24T01:25:10;99494.47;;;3.43;70.40
52719;BME280;38616;42.140;24.760;2022-12-24T01:27:36;99494.56;;;3.48;70.70
52719;BME280;38616;42.140;24.760;2022-12-24T01:30:02;99492.28;;;3.81;69.73
52719;BME280;38616;42.140;24.760;2022-12-24T01:32:27;99496.91;;;3.57;69.96
52719;BME280;38616;42.140;24.760;2022-12-24T01:34:53;99500.44;;;3.21;70.71
52719;BME280;38616;42.140;24.760;2022-12-24T01:37:18;99496.00;;;3.39;71.12
52719;BME280;38616;42.140;24.760;2022-12-24T01:39:43;99495.75;;;3.29;71.44
52719;BME280;38616;42.140;24.760;2022-12-24T01:42:27;99494.13;;;3.39;71.00
52719;BME280;38616;42.140;24.760;2022-12-24T01:45:41;99494.72;;;3.18;71.47
52719;BME280;38616;42.140;24.760;2022-12-24T01:51:34;99491.50;;;3.68;69.78
52719;BME280;38616;42.140;24.760;2022-12-24T01:54:14;99494.81;;;3.35;70.70
52719;BME280;38616;42.140;24.760;2022-12-24T01:59:31;99494.97;;;3.28;70.50
52719;BME280;38616;42.140;24.760;2022-12-24T02:01:57;99496.94;;;3.33;70.96
52719;BME280;38616;42.140;24.760;2022-12-24T02:06:48;99489.34;;;3.18;71.70
52719;BME280;38616;42.140;24.760;2022-12-24T02:09:14;99488.06;;;3.08;71.72
52719;BME280;38616;42.140;24.760;2022-12-24T02:11:40;99493.56;;;3.14;71.69
52719;BME280;38616;42.140;24.760;2022-12-24T02:14:09;99492.97;;;3.12;71.08
52719;BME280;38616;42.140;24.760;2022-12-24T02:25:20;99478.94;;;3.21;70.75
52719;BME280;38616;42.140;24.760;2022-12-24T02:31:08;99489.25;;;3.13;71.05
52719;BME280;38616;42.140;24.760;2022-12-24T02:33:45;99491.91;;;3.24;70.31
52719;BME280;38616;42.140;24.760;2022-12-24T02:36:33;99489.38;;;3.06;70.90
52719;BME280;38616;42.140;24.760;2022-12-24T02:39:04;99492.97;;;3.00;71.41
52719;BME280;38616;42.140;24.760;2022-12-24T02:41:34;99495.88;;;3.10;71.06
52719;BME280;38616;42.140;24.760;2022-12-24T02:44:21;99492.03;;;3.18;70.39
52719;BME280;38616;42.140;24.760;2022-12-24T02:46:48;99498.94;;;3.14;70.91
52719;BME280;38616;42.140;24.760;2022-12-24T02:49:14;99508.25;;;3.23;70.25
52719;BME280;38616;42.140;24.760;2022-12-24T02:51:39;99512.00;;;3.22;69.90
52719;BME280;38616;42.140;24.760;2022-12-24T02:54:05;99509.06;;;3.23;70.08
52719;BME280;38616;42.140;24.760;2022-12-24T02:57:26;99508.94;;;3.42;69.49
52719;BME280;38616;42.140;24.760;2022-12-24T02:59:43;99517.94;;;3.48;68.90
52719;BME280;38616;42.140;24.760;2022-12-24T03:08:13;99508.50;;;3.33;69.09
52719;BME280;38616;42.140;24.760;2022-12-24T03:13:12;99498.69;;;3.03;69.58
52719;BME280;38616;42.140;24.760;2022-12-24T03:15:39;99505.56;;;3.11;69.98
52719;BME280;38616;42.140;24.760;2022-12-24T03:18:07;99489.47;;;3.11;69.31
52719;BME280;38616;42.140;24.760;2022-12-24T03:20:36;99488.41;;;3.24;70.01
52719;BME280;38616;42.140;24.760;2022-12-24T03:23:04;99482.47;;;3.22;68.63
52719;BME280;38616;42.140;24.760;2022-12-24T03:25:31;99484.91;;;3.12;69.13
52719;BME280;38616;42.140;24.760;2022-12-24T03:28:00;99483.88;;;3.13;69.37
52719;BME280;38616;42.140;24.760;2022-12-24T03:30:27;99485.16;;;2.98;69.52
52719;BME280;38616;42.140;24.760;2022-12-24T03:32:52;99485.72;;;3.00;69.57
52719;BME280;38616;42.140;24.760;2022-12-24T03:35:18;99479.06;;;2.91;70.11
52719;BME280;38616;42.140;24.760;2022-12-24T03:37:43;99488.88;;;2.85;69.54
52719;BME280;38616;42.140;24.760;2022-12-24T03:40:09;99484.06;;;2.63;70.31
52719;BME280;38616;42.140;24.760;2022-12-24T03:42:35;99480.34;;;2.76;70.42
52719;BME280;38616;42.140;24.760;2022-12-24T03:45:00;99488.50;;;2.81;70.13
52719;BME280;38616;42.140;24.760;2022-12-24T03:47:26;99483.16;;;2.70;70.25
52719;BME280;38616;42.140;24.760;2022-12-24T03:49:51;99493.41;;;2.73;71.07
52719;BME280;38616;42.140;24.760;2022-12-24T03:52:16;99485.06;;;3.05;70.00
52719;BME280;38616;42.140;24.760;2022-12-24T03:54:42;99473.00;;;3.31;68.41
52719;BME280;38616;42.140;24.760;2022-12-24T03:57:07;99473.03;;;2.95;69.32
52719;BME280;38616;42.140;24.760;2022-12-24T03:59:33;99467.50;;;2.78;69.69
52719;BME280;38616;42.140;24.760;2022-12-24T04:01:58;99472.41;;;2.81;69.67
52719;BME280;38616;42.140;24.760;2022-12-24T04:04:23;99480.94;;;3.02;69.28
52719;BME280;38616;42.140;24.760;2022-12-24T04:06:49;99475.94;;;2.82;70.13
52719;BME280;38616;42.140;24.760;2022-12-24T04:09:14;99476.59;;;2.77;70.00
52719;BME280;38616;42.140;24.760;2022-12-24T04:11:40;99481.16;;;2.89;70.27
52719;BME280;38616;42.140;24.760;2022-12-24T04:14:05;99471.97;;;2.97;69.55
52719;BME280;38616;42.140;24.760;2022-12-24T04:16:31;99480.97;;;2.90;69.59
52719;BME280;38616;42.140;24.760;2022-12-24T04:18:56;99480.13;;;2.78;70.78
52719;BME280;38616;42.140;24.760;2022-12-24T04:21:21;99481.16;;;2.89;70.39
52719;BME280;38616;42.140;24.760;2022-12-24T04:23:47;99475.09;;;2.81;70.49
52719;BME280;38616;42.140;24.760;2022-12-24T04:26:13;99482.31;;;2.69;71.19
52719;BME280;38616;42.140;24.760;2022-12-24T04:28:39;99477.69;;;2.88;70.52
52719;BME280;38616;42.140;24.760;2022-12-24T04:31:07;99488.41;;;3.00;70.24
52719;BME280;38616;42.140;24.760;2022-12-24T04:33:33;99492.38;;;2.86;71.43
52719;BME280;38616;42.140;24.760;2022-12-24T04:36:00;99496.81;;;2.92;71.67
52719;BME280;38616;42.140;24.760;2022-12-24T04:38:26;99494.59;;;2.77;71.29
52719;BME280;38616;42.140;24.760;2022-12-24T04:43:28;99488.50;;;2.81;71.02
52719;BME280;38616;42.140;24.760;2022-12-24T04:45:54;99497.59;;;2.80;70.94
52719;BME280;38616;42.140;24.760;2022-12-24T04:48:20;99510.53;;;2.60;70.79
52719;BME280;38616;42.140;24.760;2022-12-24T04:50:46;99498.78;;;2.85;70.55
52719;BME280;38616;42.140;24.760;2022-12-24T04:53:11;99490.47;;;2.62;71.14
52719;BME280;38616;42.140;24.760;2022-12-24T04:55:43;99497.22;;;2.53;71.47
52719;BME280;38616;42.140;24.760;2022-12-24T04:58:09;99483.34;;;2.56;72.38
52719;BME280;38616;42.140;24.760;2022-12-24T05:00:35;99494.22;;;2.73;71.64
52719;BME280;38616;42.140;24.760;2022-12-24T05:03:00;99492.03;;;2.82;71.05
52719;BME280;38616;42.140;24.760;2022-12-24T05:05:25;99499.59;;;2.73;70.82
52719;BME280;38616;42.140;24.760;2022-12-24T05:07:51;99503.09;;;2.62;71.13
52719;BME280;38616;42.140;24.760;2022-12-24T05:10:16;99501.09;;;2.69;71.51
52719;BME280;38616;42.140;24.760;2022-12-24T05:12:41;99498.88;;;2.66;70.74
52719;BME280;38616;42.140;24.760;2022-12-24T05:15:07;99496.69;;;2.75;71.43
52719;BME280;38616;42.140;24.760;2022-12-24T05:17:33;99487.69;;;2.69;71.27
52719;BME280;38616;42.140;24.760;2022-12-24T05:19:58;99500.28;;;2.57;71.34
52719;BME280;38616;42.140;24.760;2022-12-24T05:22:23;99494.22;;;2.73;71.12
52719;BME280;38616;42.140;24.760;2022-12-24T05:25:08;99499.00;;;2.71;70.97
52719;BME280;38616;42.140;24.760;2022-12-24T05:27:52;99495.50;;;2.71;70.65
52719;BME280;38616;42.140;24.760;2022-12-24T05:30:18;99492.81;;;2.83;70.50
52719;BME280;38616;42.140;24.760;2022-12-24T05:32:44;99496.09;;;2.61;70.21
52719;BME280;38616;42.140;24.760;2022-12-24T05:35:09;99498.31;;;2.76;71.47
52719;BME280;38616;42.140;24.760;2022-12-24T05:37:35;99505.63;;;2.57;71.16
52719;BME280;38616;42.140;24.760;2022-12-24T05:40:00;99504.00;;;2.68;71.89
52719;BME280;38616;42.140;24.760;2022-12-24T05:42:25;99508.00;;;2.65;70.73
52719;BME280;38616;42.140;24.760;2022-12-24T05:44:51;99509.00;;;2.52;72.16
52719;BME280;38616;42.140;24.760;2022-12-24T05:47:16;99503.16;;;2.55;73.43
52719;BME280;38616;42.140;24.760;2022-12-24T05:49:41;99503.69;;;2.64;72.73
52719;BME280;38616;42.140;24.760;2022-12-24T05:52:07;99507.03;;;2.71;71.81
52719;BME280;38616;42.140;24.760;2022-12-24T05:54:32;99509.03;;;2.76;71.65
52719;BME280;38616;42.140;24.760;2022-12-24T05:56:57;99500.28;;;2.80;71.28
52719;BME280;38616;42.140;24.760;2022-12-24T05:59:23;99524.44;;;2.69;71.45
52719;BME280;38616;42.140;24.760;2022-12-24T06:01:48;99529.44;;;2.65;72.87
52719;BME280;38616;42.140;24.760;2022-12-24T06:04:14;99527.97;;;2.81;71.80
52719;BME280;38616;42.140;24.760;2022-12-24T06:06:39;99530.94;;;1.81;74.63
52719;BME280;38616;42.140;24.760;2022-12-24T06:09:04;99530.81;;;1.57;77.54
52719;BME280;38616;42.140;24.760;2022-12-24T06:11:30;99537.00;;;1.14;74.97
52719;BME280;38616;42.140;24.760;2022-12-24T06:13:55;99548.09;;;0.60;78.11
52719;BME280;38616;42.140;24.760;2022-12-24T06:16:22;99555.97;;;0.09;78.37
52719;BME280;38616;42.140;24.760;2022-12-24T06:18:48;99554.22;;;-0.10;79.30
52719;BME280;38616;42.140;24.760;2022-12-24T06:21:14;99549.19;;;0.13;80.32
52719;BME280;38616;42.140;24.760;2022-12-24T06:23:41;99538.53;;;2.03;81.66
52719;BME280;38616;42.140;24.760;2022-12-24T06:26:08;99537.63;;;1.35;74.79
52719;BME280;38616;42.140;24.760;2022-12-24T06:28:35;99552.44;;;0.54;78.58
52719;BME280;38616;42.140;24.760;2022-12-24T06:31:02;99555.25;;;0.34;79.06
52719;BME280;38616;42.140;24.760;2022-12-24T06:33:29;99553.03;;;0.24;78.01
52719;BME280;38616;42.140;24.760;2022-12-24T06:35:54;99545.94;;;0.05;78.45
52719;BME280;38616;42.140;24.760;2022-12-24T06:38:20;99546.72;;;0.83;81.31
52719;BME280;38616;42.140;24.760;2022-12-24T06:40:46;99545.09;;;1.70;78.50
52719;BME280;38616;42.140;24.760;2022-12-24T06:43:12;99557.09;;;2.35;76.08
52719;BME280;38616;42.140;24.760;2022-12-24T06:45:38;99547.16;;;2.66;73.52
52719;BME280;38616;42.140;24.760;2022-12-24T06:48:04;99551.84;;;2.83;72.28
52719;BME280;38616;42.140;24.760;2022-12-24T06:50:31;99540.00;;;3.02;71.55
52719;BME280;38616;42.140;24.760;2022-12-24T06:52:57;99537.56;;;3.01;71.50
52719;BME280;38616;42.140;24.760;2022-12-24T06:55:22;99536.84;;;3.05;71.35
52719;BME280;38616;42.140;24.760;2022-12-24T06:57:48;99539.78;;;3.16;70.92
52719;BME280;38616;42.140;24.760;2022-12-24T07:00:13;99532.31;;;3.30;71.22
52719;BME280;38616;42.140;24.760;2022-12-24T07:02:40;99530.06;;;3.50;70.49
52719;BME280;38616;42.140;24.760;2022-12-24T07:05:07;99531.00;;;3.44;69.97
52719;BME280;38616;42.140;24.760;2022-12-24T07:07:36;99538.22;;;1.92;74.44
52719;BME280;38616;42.140;24.760;2022-12-24T07:10:02;99538.63;;;1.15;76.83
52719;BME280;38616;42.140;24.760;2022-12-24T07:12:28;99528.44;;;1.68;78.30
52719;BME280;38616;42.140;24.760;2022-12-24T07:14:53;99542.59;;;0.87;78.27
52719;BME280;38616;42.140;24.760;2022-12-24T07:17:19;99548.47;;;0.70;79.77
52719;BME280;38616;42.140;24.760;2022-12-24T07:19:44;99552.34;;;1.00;79.94
52719;BME280;38616;42.140;24.760;2022-12-24T07:22:09;99544.41;;;1.12;80.00
52719;BME280;38616;42.140;24.760;2022-12-24T07:24:35;99534.19;;;2.20;78.58
52719;BME280;38616;42.140;24.760;2022-12-24T07:27:00;99538.81;;;2.98;76.45
52719;BME280;38616;42.140;24.760;2022-12-24T07:29:26;99532.88;;;3.32;74.20
52719;BME280;38616;42.140;24.760;2022-12-24T07:31:51;99545.00;;;3.58;73.15
52719;BME280;38616;42.140;24.760;2022-12-24T07:34:16;99535.75;;;3.78;71.91
52719;BME280;38616;42.140;24.760;2022-12-24T07:36:42;99524.53;;;3.93;71.76
52719;BME280;38616;42.140;24.760;2022-12-24T07:39:07;99531.22;;;4.19;70.63
52719;BME280;38616;42.140;24.760;2022-12-24T07:41:32;99534.34;;;4.45;69.65
52719;BME280;38616;42.140;24.760;2022-12-24T07:43:58;99540.41;;;4.52;69.09
52719;BME280;38616;42.140;24.760;2022-12-24T07:46:23;99547.78;;;4.91;68.83
52719;BME280;38616;42.140;24.760;2022-12-24T07:48:49;99538.50;;;4.99;67.86
52719;BME280;38616;42.140;24.760;2022-12-24T07:51:14;99540.47;;;5.21;67.25
52719;BME280;38616;42.140;24.760;2022-12-24T07:53:39;99554.34;;;2.96;74.05
52719;BME280;38616;42.140;24.760;2022-12-24T07:56:12;99558.34;;;2.32;75.92
52719;BME280;38616;42.140;24.760;2022-12-24T07:58:37;99557.50;;;2.50;75.74
52719;BME280;38616;42.140;24.760;2022-12-24T08:01:03;99563.00;;;2.56;77.14
52719;BME280;38616;42.140;24.760;2022-12-24T08:03:28;99561.72;;;3.72;75.72
52719;BME280;38616;42.140;24.760;2022-12-24T08:05:54;99573.53;;;4.53;72.89
52719;BME280;38616;42.140;24.760;2022-12-24T08:08:19;99580.09;;;4.91;70.11
52719;BME280;38616;42.140;24.760;2022-12-24T08:10:45;99576.22;;;5.16;68.76
52719;BME280;38616;42.140;24.760;2022-12-24T08:13:12;99570.72;;;5.45;67.84
52719;BME280;38616;42.140;24.760;2022-12-24T08:15:37;99574.94;;;5.58;67.12
52719;BME280;38616;42.140;24.760;2022-12-24T08:18:03;99582.75;;;5.76;67.27
52719;BME280;38616;42.140;24.760;2022-12-24T08:20:28;99575.50;;;5.99;66.49
52719;BME280;38616;42.140;24.760;2022-12-24T08:22:54;99577.88;;;6.13;65.86
52719;BME280;38616;42.140;24.760;2022-12-24T08:25:19;99589.16;;;6.10;65.91
52719;BME280;38616;42.140;24.760;2022-12-24T08:27:45;99577.16;;;6.23;65.54
52719;BME280;38616;42.140;24.760;2022-12-24T08:30:11;99575.69;;;5.92;66.95
52719;BME280;38616;42.140;24.760;2022-12-24T08:32:36;99586.47;;;3.62;72.35
52719;BME280;38616;42.140;24.760;2022-12-24T08:35:02;99583.44;;;4.52;77.70
52719;BME280;38616;42.140;24.760;2022-12-24T08:37:27;99584.38;;;3.17;74.32
52719;BME280;38616;42.140;24.760;2022-12-24T08:39:53;99580.97;;;2.98;74.90
52719;BME280;38616;42.140;24.760;2022-12-24T08:42:18;99576.19;;;3.12;75.00
52719;BME280;38616;42.140;24.760;2022-12-24T08:44:44;99564.72;;;3.88;75.10
52719;BME280;38616;42.140;24.760;2022-12-24T08:47:09;99569.50;;;4.84;72.54
52719;BME280;38616;42.140;24.760;2022-12-24T08:49:34;99560.03;;;5.50;69.65
52719;BME280;38616;42.140;24.760;2022-12-24T08:52:00;99562.88;;;5.83;67.97
52719;BME280;38616;42.140;24.760;2022-12-24T08:54:25;99564.66;;;6.39;67.95
52719;BME280;38616;42.140;24.760;2022-12-24T08:56:51;99554.78;;;6.49;64.58
52719;BME280;38616;42.140;24.760;2022-12-24T08:59:16;99549.75;;;6.91;64.12
52719;BME280;38616;42.140;24.760;2022-12-24T09:01:42;99551.09;;;6.56;64.35
52719;BME280;38616;42.140;24.760;2022-12-24T09:04:07;99549.91;;;6.24;64.71
52719;BME280;38616;42.140;24.760;2022-12-24T09:06:34;99549.19;;;6.56;64.25
52719;BME280;38616;42.140;24.760;2022-12-24T09:09:01;99554.91;;;6.60;63.59
52719;BME280;38616;42.140;24.760;2022-12-24T09:11:27;99540.22;;;6.78;63.14
52719;BME280;38616;42.140;24.760;2022-12-24T09:13:53;99563.84;;;4.69;69.34
52719;BME280;38616;42.140;24.760;2022-12-24T09:16:18;99549.72;;;3.51;72.15
52719;BME280;38616;42.140;24.760;2022-12-24T09:18:43;99551.94;;;3.30;72.85
52719;BME280;38616;42.140;24.760;2022-12-24T09:21:12;99550.38;;;3.58;73.67
52719;BME280;38616;42.140;24.760;2022-12-24T09:23:39;99545.34;;;4.26;73.19
52719;BME280;38616;42.140;24.760;2022-12-24T09:26:07;99546.91;;;5.20;70.71
52719;BME280;38616;42.140;24.760;2022-12-24T09:28:33;99534.03;;;5.83;67.79
52719;BME280;38616;42.140;24.760;2022-12-24T09:31:00;99529.72;;;6.54;66.22
52719;BME280;38616;42.140;24.760;2022-12-24T09:33:27;99535.50;;;6.95;64.11
52719;BME280;38616;42.140;24.760;2022-12-24T09:35:53;99526.75;;;7.16;62.66
52719;BME280;38616;42.140;24.760;2022-12-24T09:38:19;99524.22;;;7.42;62.90
52719;BME280;38616;42.140;24.760;2022-12-24T09:40:46;99518.25;;;7.39;62.06
52719;BME280;38616;42.140;24.760;2022-12-24T09:43:23;99515.06;;;7.48;62.62
52719;BME280;38616;42.140;24.760;2022-12-24T09:48:33;99509.25;;;7.82;61.06
52719;BME280;38616;42.140;24.760;2022-12-24T09:51:06;99499.28;;;7.82;61.10
52719;BME280;38616;42.140;24.760;2022-12-24T09:56:03;99512.59;;;4.29;70.47
52719;BME280;38616;42.140;24.760;2022-12-24T09:58:37;99501.53;;;5.28;71.47
52719;BME280;38616;42.140;24.760;2022-12-24T10:01:03;99489.28;;;6.59;67.18
52719;BME280;38616;42.140;24.760;2022-12-24T10:03:29;99486.28;;;7.26;64.96
52719;BME280;38616;42.140;24.760;2022-12-24T10:11:21;99482.88;;;8.15;59.80
52719;BME280;38616;42.140;24.760;2022-12-24T10:14:08;99484.50;;;8.16;60.33
52719;BME280;38616;42.140;24.760;2022-12-24T10:19:13;99470.25;;;8.78;58.89
52719;BME280;38616;42.140;24.760;2022-12-24T10:24:31;99473.75;;;8.52;58.70
52719;BME280;38616;42.140;24.760;2022-12-24T10:27:21;99462.66;;;8.49;59.09
52719;BME280;38616;42.140;24.760;2022-12-24T10:29:55;99462.63;;;8.43;58.45
52719;BME280;38616;42.140;24.760;2022-12-24T10:32:27;99465.06;;;8.35;58.74
52719;BME280;38616;42.140;24.760;2022-12-24T10:34:59;99468.00;;;8.33;58.69
52719;BME280;38616;42.140;24.760;2022-12-24T10:37:28;99459.09;;;8.33;59.04
52719;BME280;38616;42.140;24.760;2022-12-24T10:39:54;99459.88;;;8.28;59.12
52719;BME280;38616;42.140;24.760;2022-12-24T10:42:22;99459.91;;;8.43;58.62
52719;BME280;38616;42.140;24.760;2022-12-24T10:44:52;99458.59;;;8.56;58.33
52719;BME280;38616;42.140;24.760;2022-12-24T10:47:19;99448.59;;;8.78;57.61
52719;BME280;38616;42.140;24.760;2022-12-24T10:49:56;99456.13;;;8.91;57.16
52719;BME280;38616;42.140;24.760;2022-12-24T10:52:26;99452.84;;;9.25;56.81
52719;BME280;38616;42.140;24.760;2022-12-24T10:57:41;99456.09;;;9.17;57.03
52719;BME280;38616;42.140;24.760;2022-12-24T11:00:19;99456.09;;;9.22;56.62
52719;BME280;38616;42.140;24.760;2022-12-24T11:02:46;99446.28;;;9.37;56.00
52719;BME280;38616;42.140;24.760;2022-12-24T11:05:29;99441.66;;;9.42;56.02
52719;BME280;38616;42.140;24.760;2022-12-24T11:07:59;99448.16;;;9.41;56.03
52719;BME280;38616;42.140;24.760;2022-12-24T11:10:25;99455.31;;;9.16;56.10
52719;BME280;38616;42.140;24.760;2022-12-24T11:12:50;99448.47;;;9.40;55.82
52719;BME280;38616;42.140;24.760;2022-12-24T11:15:19;99441.16;;;9.30;58.13
52719;BME280;38616;42.140;24.760;2022-12-24T11:17:54;99443.59;;;9.37;56.86
52719;BME280;38616;42.140;24.760;2022-12-24T11:20:24;99447.03;;;9.53;56.84
52719;BME280;38616;42.140;24.760;2022-12-24T11:22:50;99437.03;;;9.53;56.75
52719;BME280;38616;42.140;24.760;2022-12-24T11:25:21;99440.84;;;9.47;56.45
52719;BME280;38616;42.140;24.760;2022-12-24T11:27:49;99434.91;;;9.40;56.36
52719;BME280;38616;42.140;24.760;2022-12-24T11:35:14;99425.59;;;9.67;56.46
52719;BME280;38616;42.140;24.760;2022-12-24T11:37:39;99421.28;;;9.60;56.64
52719;BME280;38616;42.140;24.760;2022-12-24T11:40:18;99409.03;;;9.63;56.13
52719;BME280;38616;42.140;24.760;2022-12-24T11:42:44;99416.66;;;9.56;56.88
52719;BME280;38616;42.140;24.760;2022-12-24T11:45:22;99412.09;;;9.51;57.15
52719;BME280;38616;42.140;24.760;2022-12-24T11:47:49;99415.34;;;9.53;56.79
52719;BME280;38616;42.140;24.760;2022-12-24T11:50:32;99416.66;;;9.56;56.63
52719;BME280;38616;42.140;24.760;2022-12-24T11:53:06;99414.25;;;9.54;57.85
52719;BME280;38616;42.140;24.760;2022-12-24T11:55:47;99427.53;;;7.06;64.27
52719;BME280;38616;42.140;24.760;2022-12-24T12:00:44;99424.84;;;6.35;66.70
52719;BME280;38616;42.140;24.760;2022-12-24T12:03:34;99422.28;;;6.18;67.29
52719;BME280;38616;42.140;24.760;2022-12-24T12:06:04;99419.78;;;6.39;65.46
52719;BME280;38616;42.140;24.760;2022-12-24T12:08:34;99414.34;;;6.06;68.06
52719;BME280;38616;42.140;24.760;2022-12-24T12:11:02;99425.22;;;6.44;68.68
52719;BME280;38616;42.140;24.760;2022-12-24T12:13:31;99422.06;;;6.25;66.33
52719;BME280;38616;42.140;24.760;2022-12-24T12:16:22;99419.34;;;6.90;69.12
52719;BME280;38616;42.140;24.760;2022-12-24T12:18:57;99414.91;;;7.91;65.48
52719;BME280;38616;42.140;24.760;2022-12-24T12:21:45;99411.22;;;8.64;62.30
52719;BME280;38616;42.140;24.760;2022-12-24T12:24:15;99411.13;;;9.11;64.14
52719;BME280;38616;42.140;24.760;2022-12-24T12:26:44;99409.22;;;9.77;61.40
52719;BME280;38616;42.140;24.760;2022-12-24T12:29:30;99400.00;;;10.23;58.94
52719;BME280;38616;42.140;24.760;2022-12-24T12:32:12;99408.72;;;10.60;57.56
52719;BME280;38616;42.140;24.760;2022-12-24T12:34:58;99406.41;;;10.72;59.21
52719;BME280;38616;42.140;24.760;2022-12-24T12:37:37;99395.31;;;10.69;58.12
52719;BME280;38616;42.140;24.760;2022-12-24T12:40:12;99395.41;;;10.88;57.75
52719;BME280;38616;42.140;24.760;2022-12-24T12:42:39;99390.50;;;10.90;57.17
52719;BME280;38616;42.140;24.760;2022-12-24T12:45:34;99406.22;;;11.17;57.54
52719;BME280;38616;42.140;24.760;2022-12-24T12:50:57;99420.06;;;10.27;56.90
52719;BME280;38616;42.140;24.760;2022-12-24T12:53:50;99405.69;;;10.27;57.07
52719;BME280;38616;42.140;24.760;2022-12-24T12:59:30;99402.41;;;9.90;57.60
52719;BME280;38616;42.140;24.760;2022-12-24T13:10:40;99409.00;;;9.73;58.27
52719;BME280;38616;42.140;24.760;2022-12-24T13:18:34;99422.72;;;9.93;57.85
52719;BME280;38616;42.140;24.760;2022-12-24T13:21:15;99427.81;;;10.04;57.53
52719;BME280;38616;42.140;24.760;2022-12-24T13:23:41;99429.50;;;9.95;57.35
52719;BME280;38616;42.140;24.760;2022-12-24T13:26:10;99429.31;;;9.76;57.63
52719;BME280;38616;42.140;24.760;2022-12-24T13:28:36;99430.63;;;9.89;58.60
52719;BME280;38616;42.140;24.760;2022-12-24T13:33:53;99451.00;;;9.81;58.33
52719;BME280;38616;42.140;24.760;2022-12-24T13:36:20;99452.09;;;9.80;58.24
52719;BME280;38616;42.140;24.760;2022-12-24T13:38:53;99445.91;;;9.64;58.61
52719;BME280;38616;42.140;24.760;2022-12-24T13:46:54;99441.53;;;9.79;59.99
52719;BME280;38616;42.140;24.760;2022-12-24T13:49:35;99447.50;;;9.75;59.47
52719;BME280;38616;42.140;24.760;2022-12-24T13:52:05;99444.53;;;9.72;59.08
52719;BME280;38616;42.140;24.760;2022-12-24T13:54:32;99439.09;;;9.72;58.85
52719;BME280;38616;42.140;24.760;2022-12-24T13:56:58;99437.97;;;9.78;58.68
52719;BME280;38616;42.140;24.760;2022-12-24T13:59:36;99442.56;;;9.88;58.64
52719;BME280;38616;42.140;24.760;2022-12-24T14:02:03;99444.94;;;10.00;59.09
52719;BME280;38616;42.140;24.760;2022-12-24T14:04:33;99444.25;;;9.79;58.86
52719;BME280;38616;42.140;24.760;2022-12-24T14:07:02;99443.69;;;9.76;58.66
52719;BME280;38616;42.140;24.760;2022-12-24T14:09:29;99449.16;;;9.71;58.46
52719;BME280;38616;42.140;24.760;2022-12-24T14:14:29;99439.69;;;9.69;58.86
52719;BME280;38616;42.140;24.760;2022-12-24T14:17:00;99441.91;;;9.56;59.23
52719;BME280;38616;42.140;24.760;2022-12-24T14:19:45;99447.88;;;9.53;59.17
52719;BME280;38616;42.140;24.760;2022-12-24T14:24:47;99446.78;;;9.59;59.23
52719;BME280;38616;42.140;24.760;2022-12-24T14:27:19;99456.22;;;9.62;59.05
52719;BME280;38616;42.140;24.760;2022-12-24T14:29:49;99432.69;;;9.52;59.50
52719;BME280;38616;42.140;24.760;2022-12-24T14:32:16;99434.56;;;9.52;58.92
52719;BME280;38616;42.140;24.760;2022-12-24T14:34:42;99441.38;;;9.54;59.35
52719;BME280;38616;42.140;24.760;2022-12-24T14:37:10;99437.84;;;9.49;59.57